createdAt,value
2017-06-21T17:55:38.320Z,28.13
2017-06-21T17:56:18.964Z,27.45
2017-06-21T17:57:00.153Z,27.14
2017-06-21T17:57:40.718Z,26.86
2017-06-21T17:58:21.297Z,27.82
2017-06-21T17:59:02.113Z,27.44
2017-06-21T17:59:42.698Z,27.04
2017-06-21T18:00:23.311Z,28.02
2017-06-21T18:01:03.915Z,29.46
2017-06-21T18:01:44.657Z,29.08
2017-06-21T18:02:25.254Z,29.85
2017-06-21T18:03:05.838Z,30.24
2017-06-21T18:03:46.418Z,29.36
2017-06-21T18:04:27.014Z,29.08
2017-06-21T18:05:07.605Z,29.17
2017-06-21T18:05:48.208Z,29.27
2017-06-21T18:06:28.809Z,30.43
2017-06-21T18:07:09.373Z,29.94
2017-06-21T18:07:49.971Z,29.17
2017-06-21T18:08:30.625Z,29.66
2017-06-21T18:09:11.391Z,29.85
2017-06-21T18:09:51.977Z,29.94
2017-06-21T18:10:32.756Z,31.49
2017-06-21T18:11:13.341Z,30.91
2017-06-21T18:11:53.930Z,30.91
2017-06-21T18:12:34.611Z,31.4
2017-06-21T18:13:15.200Z,32.17
2017-06-21T18:13:55.785Z,32.46
2017-06-21T18:14:36.373Z,31.3
2017-06-21T18:15:16.971Z,30.43
2017-06-21T18:15:57.645Z,30.14
2017-06-21T18:16:38.219Z,30.33
2017-06-21T18:17:18.804Z,30.52
2017-06-21T18:17:59.414Z,31.2
2017-06-21T18:18:40.003Z,30.04
2017-06-21T18:19:20.596Z,29.46
2017-06-21T18:20:01.180Z,29.46
2017-06-21T18:20:41.769Z,28.59
2017-06-21T18:21:22.351Z,28.59
2017-06-21T18:22:02.936Z,28.59
2017-06-21T18:22:43.533Z,28.98
2017-06-21T18:23:24.123Z,29.08
2017-06-21T18:24:04.717Z,29.46
2017-06-21T18:24:45.304Z,29.27
2017-06-21T18:25:25.938Z,28.98
2017-06-21T18:26:06.514Z,29.27
2017-06-21T18:26:47.127Z,30.04
2017-06-21T18:27:27.685Z,30.91
2017-06-21T18:28:08.302Z,31.68
2017-06-21T18:28:48.892Z,31.4
2017-06-21T18:29:29.478Z,31.49
2017-06-21T18:30:10.072Z,31.2
2017-06-21T18:30:50.744Z,30.33
2017-06-21T18:31:31.332Z,31.01
2017-06-21T18:32:11.923Z,32.46
2017-06-21T18:32:52.505Z,33.23
2017-06-21T18:33:33.094Z,32.75
2017-06-21T18:34:13.728Z,32.36
2017-06-21T18:34:54.409Z,32.26
2017-06-21T18:35:34.990Z,30.72
2017-06-21T18:36:15.564Z,30.33
2017-06-21T18:36:56.178Z,31.01
2017-06-21T18:37:36.782Z,30.52
2017-06-21T18:38:17.406Z,30.33
2017-06-21T18:38:57.991Z,30.52
2017-06-21T18:39:38.630Z,30.33
2017-06-21T18:40:32.147Z,29.46
2017-06-21T18:42:17.651Z,29.08
2017-06-21T18:42:58.294Z,28.69
2017-06-21T18:43:38.873Z,29.56
2017-06-21T18:44:19.477Z,29.75
2017-06-21T18:45:00.093Z,29.46
2017-06-21T18:45:40.689Z,29.08
2017-06-21T18:46:21.274Z,29.08
2017-06-21T18:47:01.865Z,29.94
2017-06-21T18:47:42.460Z,29.46
2017-06-21T18:48:23.050Z,29.46
2017-06-21T18:49:03.634Z,29.27
2017-06-21T18:49:44.233Z,29.08
2017-06-21T18:50:24.832Z,28.78
2017-06-21T18:51:05.460Z,29.46
2017-06-21T18:51:46.072Z,29.75
2017-06-21T18:52:26.648Z,29.27
2017-06-21T18:53:07.231Z,29.46
2017-06-21T18:53:47.830Z,29.75
2017-06-21T18:54:28.431Z,29.66
2017-06-21T18:55:09.404Z,30.04
2017-06-21T18:55:49.979Z,29.94
2017-06-21T18:56:30.580Z,29.08
2017-06-21T18:57:11.165Z,29.56
2017-06-21T18:57:51.782Z,29.66
2017-06-21T18:58:32.364Z,28.98
2017-06-21T18:59:12.969Z,28.48
2017-06-21T18:59:53.541Z,28.69
2017-06-21T19:00:34.177Z,29.27
2017-06-21T19:01:14.773Z,28.97
2017-06-21T19:01:55.366Z,29.35
2017-06-21T19:02:36.022Z,29.35
2017-06-21T19:03:16.604Z,28.98
2017-06-21T19:03:57.197Z,28.77
2017-06-21T19:04:37.791Z,29.06
2017-06-21T19:05:18.379Z,29.46
2017-06-21T19:05:58.954Z,29.08
2017-06-21T19:06:39.552Z,28.77
2017-06-21T19:07:20.339Z,29.06
2017-06-21T19:08:01.347Z,29.06
2017-06-21T19:08:42.556Z,29.74
2017-06-21T19:09:23.156Z,30.12
2017-06-21T19:10:03.841Z,29.25
2017-06-21T19:10:44.456Z,29.64
2017-06-21T19:11:25.063Z,29.35
2017-06-21T19:12:05.656Z,29.55
2017-06-21T19:12:46.281Z,30.51
2017-06-21T19:13:26.881Z,30.51
2017-06-21T19:14:07.469Z,29.93
2017-06-21T19:14:48.051Z,30.41
2017-06-21T19:15:28.732Z,30.22
2017-06-21T19:16:09.399Z,29.74
2017-06-21T19:16:50.085Z,29.93
2017-06-21T19:17:31.003Z,29.45
2017-06-21T19:18:14.241Z,30.03
2017-06-21T19:18:55.194Z,30.51
2017-06-21T19:19:35.920Z,30.32
2017-06-21T19:20:16.755Z,30.22
2017-06-21T19:20:57.407Z,30.22
2017-06-21T19:21:38.176Z,30.41
2017-06-21T19:22:18.906Z,31.48
2017-06-21T19:22:59.573Z,32.24
2017-06-21T19:23:40.336Z,32.64
2017-06-21T19:24:21.018Z,33.02
2017-06-21T19:25:01.864Z,33.02
2017-06-21T19:25:42.600Z,32.15
2017-06-21T19:27:05.317Z,32.92
2017-06-21T19:27:46.311Z,31.76
2017-06-21T19:28:27.481Z,31.76
2017-06-21T19:29:08.174Z,32.24
2017-06-21T19:29:49.370Z,32.34
2017-06-21T19:30:30.472Z,32.34
2017-06-21T19:31:11.110Z,31.48
2017-06-21T19:31:51.720Z,31.28
2017-06-21T19:32:32.529Z,31.48
2017-06-21T19:33:13.129Z,31.48
2017-06-21T19:33:53.754Z,31.28
2017-06-21T19:34:34.406Z,31.48
2017-06-21T19:35:15.005Z,32.24
2017-06-21T19:35:55.805Z,32.44
2017-06-21T19:36:36.401Z,32.34
2017-06-21T19:37:16.982Z,32.54
2017-06-21T19:37:57.595Z,32.54
2017-06-21T19:38:38.195Z,32.44
2017-06-21T19:39:18.875Z,32.73
2017-06-21T19:39:59.558Z,32.44
2017-06-21T19:40:40.211Z,32.64
2017-06-21T19:41:21.118Z,32.24
2017-06-21T19:42:01.764Z,32.54
2017-06-21T19:42:42.412Z,32.34
2017-06-21T19:43:23.186Z,32.54
2017-06-21T19:44:03.822Z,33.22
2017-06-21T19:44:44.436Z,32.44
2017-06-21T19:45:25.080Z,31.86
2017-06-21T19:46:05.724Z,32.34
2017-06-21T19:46:46.487Z,32.44
2017-06-21T19:47:27.290Z,32.64
2017-06-21T19:48:08.083Z,32.34
2017-06-21T19:48:48.752Z,32.44
2017-06-21T19:49:29.484Z,32.64
2017-06-21T19:50:10.387Z,32.64
2017-06-21T19:50:51.125Z,32.34
2017-06-21T19:51:31.758Z,32.34
2017-06-21T19:52:12.381Z,32.73
2017-06-21T19:52:53.123Z,32.82
2017-06-21T19:53:34.261Z,32.44
2017-06-21T19:54:15.187Z,32.92
2017-06-21T19:54:55.964Z,32.82
2017-06-21T19:55:36.708Z,33.4
2017-06-21T19:56:17.417Z,33.98
2017-06-21T19:56:57.981Z,34.47
2017-06-21T19:57:38.575Z,33.8
2017-06-21T19:58:19.185Z,33.98
2017-06-21T19:58:59.763Z,33.7
2017-06-21T19:59:51.344Z,33.02
2017-06-21T20:00:36.298Z,33.22
2017-06-21T20:01:16.892Z,33.7
2017-06-21T20:01:57.496Z,33.22
2017-06-21T20:02:38.074Z,33.7
2017-06-21T20:03:18.670Z,33.7
2017-06-21T20:03:59.444Z,33.02
2017-06-21T20:04:42.285Z,32.52
2017-06-21T20:05:22.856Z,32.06
2017-06-21T20:06:03.495Z,31.86
2017-06-21T20:06:44.079Z,32.33
